createdAt,value
2023-04-02T00:00:17.501Z,99162.53
2023-04-02T00:03:20.652Z,99170.34
2023-04-02T00:06:40.722Z,99175.59
2023-04-02T00:09:44.481Z,99183.41
2023-04-02T00:12:44.478Z,99175.03
2023-04-02T00:15:44.496Z,99175.47
2023-04-02T00:18:44.473Z,99177.00
2023-04-02T00:21:51.520Z,99178.91
2023-04-02T00:24:52.477Z,99186.88
2023-04-02T00:27:52.496Z,99192.22
2023-04-02T00:30:52.456Z,99191.50
2023-04-02T00:33:52.516Z,99195.94
2023-04-02T00:36:53.516Z,99198.66
2023-04-02T00:39:53.469Z,99201.41
2023-04-02T00:42:53.495Z,99203.44
2023-04-02T00:45:57.506Z,99200.25
2023-04-02T00:49:04.472Z,99204.06
2023-04-02T00:52:10.461Z,99180.28
2023-04-02T00:55:17.518Z,99201.72
2023-04-02T00:58:17.459Z,99203.16
2023-04-02T01:01:17.583Z,99210.63
2023-04-02T01:04:18.476Z,99218.06
2023-04-02T01:07:21.494Z,99217.00
2023-04-02T01:10:30.471Z,99201.03
2023-04-02T01:14:04.484Z,99222.22
2023-04-02T01:17:22.514Z,99227.44
2023-04-02T01:20:36.527Z,99223.19
2023-04-02T01:23:54.499Z,99227.44
2023-04-02T01:27:10.506Z,99239.31
2023-04-02T01:30:11.470Z,99246.16
2023-04-02T01:33:04.586Z,99242.84
2023-04-02T01:35:52.537Z,99247.97
2023-04-02T01:38:52.573Z,99247.00
2023-04-02T01:42:01.475Z,99249.50
2023-04-02T01:45:05.447Z,99231.37
2023-04-02T01:48:05.608Z,99247.00
2023-04-02T01:51:07.465Z,99246.16
2023-04-02T01:54:07.475Z,99251.38
2023-04-02T01:57:07.462Z,99254.13
2023-04-02T02:00:08.509Z,99224.03
2023-04-02T02:03:09.567Z,99252.72
2023-04-02T02:06:09.501Z,99248.47
2023-04-02T02:09:14.497Z,99246.94
2023-04-02T02:12:16.482Z,99227.03
2023-04-02T02:15:16.489Z,99237.09
2023-04-02T02:18:18.502Z,99252.97
2023-04-02T02:21:19.509Z,99260.09
2023-04-02T02:24:23.480Z,99261.78
2023-04-02T02:27:35.472Z,99260.69
2023-04-02T02:30:48.522Z,99266.75
2023-04-02T02:33:57.500Z,99254.28
2023-04-02T02:37:12.449Z,99267.59
2023-04-02T02:40:13.472Z,99269.47
2023-04-02T02:43:15.512Z,99278.03
2023-04-02T02:46:18.575Z,99261.56
2023-04-02T02:49:19.500Z,99278.28
2023-04-02T02:52:22.465Z,99274.00
2023-04-02T02:55:35.549Z,99278.63
2023-04-02T02:58:41.487Z,99273.91
2023-04-02T03:01:43.574Z,99262.28
2023-04-02T03:04:43.493Z,99275.19
2023-04-02T03:07:43.501Z,99263.47
2023-04-02T03:10:53.487Z,99284.47
2023-04-02T03:13:53.486Z,99288.75
2023-04-02T03:17:00.514Z,99299.91
2023-04-02T03:20:00.477Z,99298.22
2023-04-02T03:23:17.952Z,99295.75
2023-04-02T03:26:33.514Z,99295.88
2023-04-02T03:29:30.793Z,99271.22
2023-04-02T03:32:46.529Z,99300.59
2023-04-02T03:36:21.547Z,99293.25
2023-04-02T03:39:39.525Z,99291.75
2023-04-02T03:42:41.471Z,99300.16
2023-04-02T03:45:45.507Z,99299.56
2023-04-02T03:48:51.509Z,99298.19
2023-04-02T03:51:58.517Z,99302.09
2023-04-02T03:54:58.491Z,99307.78
2023-04-02T03:58:18.480Z,99314.78
2023-04-02T04:01:31.527Z,99313.84
2023-04-02T04:04:32.544Z,99325.69
2023-04-02T04:07:43.500Z,99336.81
2023-04-02T04:10:44.573Z,99330.81
2023-04-02T04:13:57.495Z,99335.66
2023-04-02T04:17:10.474Z,99339.56
2023-04-02T04:20:21.496Z,99338.47
2023-04-02T04:23:23.507Z,99349.50
2023-04-02T04:26:26.521Z,99345.00
2023-04-02T04:29:28.510Z,99355.78
2023-04-02T04:32:40.560Z,99359.09
2023-04-02T04:35:57.573Z,99363.03
2023-04-02T04:39:05.522Z,99366.13
2023-04-02T04:42:05.493Z,99374.41
2023-04-02T04:45:14.472Z,99375.84
2023-04-02T04:48:19.498Z,99381.66
2023-04-02T04:51:22.496Z,99388.16
2023-04-02T04:54:28.497Z,99395.75
2023-04-02T04:57:49.469Z,99394.69
2023-04-02T05:01:08.498Z,99398.00
2023-04-02T05:04:17.524Z,99401.19
2023-04-02T05:07:27.470Z,99399.16
2023-04-02T05:10:31.507Z,99395.59
2023-04-02T05:13:50.488Z,99391.69
2023-04-02T05:17:01.519Z,99377.47
2023-04-02T05:20:18.515Z,99395.22
2023-04-02T05:23:28.458Z,99395.94
2023-04-02T05:26:43.484Z,99394.72
2023-04-02T05:29:47.508Z,99403.75
2023-04-02T05:32:49.536Z,99412.28
2023-04-02T05:35:56.486Z,99407.50
2023-04-02T05:39:01.480Z,99413.19
2023-04-02T05:42:01.468Z,99417.06
2023-04-02T05:45:37.650Z,99414.94
2023-04-02T05:48:47.462Z,99419.66
2023-04-02T05:51:57.074Z,99426.62
2023-04-02T05:55:32.805Z,99423.97
2023-04-02T05:58:50.525Z,99423.78
2023-04-02T06:02:02.530Z,99424.44
2023-04-02T06:05:29.485Z,99426.97
2023-04-02T06:08:37.523Z,99432.69
2023-04-02T06:11:48.461Z,99419.06
2023-04-02T06:14:48.546Z,99436.78
2023-04-02T06:18:17.521Z,99435.06
2023-04-02T06:21:18.487Z,99445.72
2023-04-02T06:24:18.465Z,99450.59
2023-04-02T06:27:19.467Z,99446.22
2023-04-02T06:30:27.536Z,99448.06
2023-04-02T06:33:27.517Z,99453.47
2023-04-02T06:36:27.484Z,99455.66
2023-04-02T06:39:38.476Z,99452.81
2023-04-02T06:42:43.524Z,99467.75
2023-04-02T06:45:47.574Z,99465.66
2023-04-02T06:48:49.484Z,99463.56
2023-04-02T06:51:50.476Z,99485.69
2023-04-02T06:54:51.552Z,99483.47
2023-04-02T06:57:51.523Z,99485.09
2023-04-02T07:00:57.528Z,99487.56
2023-04-02T07:03:57.488Z,99462.69
2023-04-02T07:06:57.512Z,99496.06
2023-04-02T07:09:57.470Z,99491.75
2023-04-02T07:12:57.516Z,99498.28
2023-04-02T07:16:01.604Z,99496.25
2023-04-02T07:19:02.497Z,99506.16
2023-04-02T07:22:03.474Z,99504.03
2023-04-02T07:25:05.514Z,99507.59
2023-04-02T07:28:05.506Z,99506.94
2023-04-02T07:31:05.565Z,99511.81
2023-04-02T07:34:10.493Z,99504.34
2023-04-02T07:37:10.521Z,99519.44
2023-04-02T07:40:11.512Z,99505.28
2023-04-02T07:43:11.491Z,99515.47
2023-04-02T07:46:11.492Z,99512.41
2023-04-02T07:49:11.508Z,99509.72
2023-04-02T07:52:11.482Z,99520.34
2023-04-02T07:55:11.466Z,99514.09
2023-04-02T07:58:12.515Z,99518.25
2023-04-02T08:01:13.544Z,99530.28
2023-04-02T08:04:14.541Z,99536.97
2023-04-02T08:07:14.481Z,99536.03
2023-04-02T08:10:14.477Z,99534.94
2023-04-02T08:13:14.487Z,99543.31
2023-04-02T08:16:14.521Z,99539.94
2023-04-02T08:19:14.478Z,99539.81
2023-04-02T08:22:14.514Z,99545.03
2023-04-02T08:25:14.516Z,99536.22
2023-04-02T08:28:14.534Z,99533.56
2023-04-02T08:31:15.582Z,99547.00
2023-04-02T08:34:15.493Z,99522.75
2023-04-02T08:37:15.562Z,99550.69
2023-04-02T08:40:15.496Z,99547.22
2023-04-02T08:43:26.493Z,99543.66
2023-04-02T08:46:50.507Z,99547.69
2023-04-02T08:49:52.528Z,99553.78
2023-04-02T08:52:52.505Z,99560.34
2023-04-02T08:56:25.521Z,99557.50
2023-04-02T08:59:41.505Z,99557.63
2023-04-02T09:02:54.586Z,99553.41
2023-04-02T09:05:56.486Z,99552.78
2023-04-02T09:08:57.555Z,99569.28
2023-04-02T09:12:07.496Z,99561.59
2023-04-02T09:15:29.509Z,99551.69
2023-04-02T09:18:31.562Z,99563.47
2023-04-02T09:21:34.600Z,99567.34
2023-04-02T09:24:34.512Z,99558.81
2023-04-02T09:27:38.512Z,99560.28
2023-04-02T09:30:44.516Z,99566.94
2023-04-02T09:34:03.559Z,99575.47
2023-04-02T09:37:03.498Z,99572.25
2023-04-02T09:40:03.534Z,99568.41
2023-04-02T09:43:03.557Z,99568.97
2023-04-02T09:46:30.516Z,99571.09
2023-04-02T09:49:30.568Z,99581.94
2023-04-02T09:52:30.533Z,99572.63
2023-04-02T09:55:35.746Z,99581.63
2023-04-02T09:58:35.520Z,99580.16
2023-04-02T10:01:42.680Z,99582.78
2023-04-02T10:05:01.547Z,99557.19
2023-04-02T10:08:03.573Z,99570.03
2023-04-02T10:11:04.559Z,99569.28
2023-04-02T10:14:17.547Z,99590.06
2023-04-02T10:17:44.570Z,99589.06
2023-04-02T10:20:51.323Z,99589.13
2023-04-02T10:23:51.569Z,99594.81
2023-04-02T10:27:09.877Z,99592.25
2023-04-02T10:30:37.555Z,99588.31
2023-04-02T10:33:50.521Z,99585.12
2023-04-02T10:37:10.534Z,99575.22
2023-04-02T10:40:41.533Z,99596.91
2023-04-02T10:43:59.306Z,99585.84
2023-04-02T10:47:25.532Z,99590.78
2023-04-02T10:50:51.532Z,99590.78
2023-04-02T10:54:11.578Z,99589.59
2023-04-02T10:57:18.616Z,99588.66
2023-04-02T11:00:44.586Z,99593.44
2023-04-02T11:04:01.603Z,99599.16
2023-04-02T11:07:14.101Z,99590.63
2023-04-02T11:10:14.565Z,99594.63
2023-04-02T11:13:27.567Z,99591.59
2023-04-02T11:16:27.576Z,99597.44
2023-04-02T11:19:30.592Z,99590.69
2023-04-02T11:22:33.557Z,99590.03
2023-04-02T11:25:35.788Z,99589.72
2023-04-02T11:28:43.581Z,99591.22
2023-04-02T11:31:43.652Z,99581.84
2023-04-02T11:35:05.037Z,99583.16
2023-04-02T11:38:05.581Z,99589.19
2023-04-02T11:41:23.533Z,99593.56
2023-04-02T11:44:35.535Z,99586.72
2023-04-02T11:47:37.621Z,99588.09
2023-04-02T11:50:57.574Z,99591.72
2023-04-02T11:53:57.600Z,99587.00
2023-04-02T11:57:07.614Z,99586.44
2023-04-02T12:00:19.588Z,99589.19
2023-04-02T12:03:37.555Z,99586.03
2023-04-02T12:07:41.585Z,99593.69
2023-04-02T12:11:02.570Z,99584.41
2023-04-02T12:14:04.542Z,99562.66
2023-04-02T12:17:05.455Z,99574.72
2023-04-02T12:20:33.901Z,99575.06
2023-04-02T12:23:39.609Z,99573.13
2023-04-02T12:26:57.549Z,99575.16
2023-04-02T12:29:57.594Z,99566.00
2023-04-02T12:32:57.635Z,99557.56
2023-04-02T12:35:59.602Z,99556.09
2023-04-02T12:39:01.588Z,99559.81
2023-04-02T12:42:01.581Z,99543.94
2023-04-02T12:45:04.549Z,99557.66
2023-04-02T12:48:04.575Z,99566.13
2023-04-02T12:51:04.564Z,99554.56
2023-04-02T12:54:05.567Z,99546.75
2023-04-02T12:57:05.620Z,99546.06
2023-04-02T13:00:12.588Z,99560.47
2023-04-02T13:03:21.698Z,99565.28
2023-04-02T13:06:36.612Z,99563.25
2023-04-02T13:09:47.639Z,99555.62
2023-04-02T13:12:48.576Z,99569.03
2023-04-02T13:15:49.582Z,99553.31
2023-04-02T13:18:51.563Z,99561.44
2023-04-02T13:21:51.628Z,99571.78
2023-04-02T13:24:51.605Z,99561.94
2023-04-02T13:27:51.555Z,99535.37
2023-04-02T13:30:51.556Z,99560.56
2023-04-02T13:33:51.617Z,99558.22
2023-04-02T13:36:51.614Z,99561.19
2023-04-02T13:39:51.609Z,99565.81
2023-04-02T13:42:51.618Z,99558.87
2023-04-02T13:45:52.596Z,99566.97
2023-04-02T13:48:52.591Z,99561.38
2023-04-02T13:51:56.582Z,99551.16
2023-04-02T13:55:07.623Z,99564.19
2023-04-02T13:58:08.618Z,99563.03
2023-04-02T14:01:08.668Z,99559.41
2023-04-02T14:04:08.655Z,99556.91
2023-04-02T14:07:24.582Z,99553.81
2023-04-02T14:10:43.629Z,99564.69
2023-04-02T14:14:19.276Z,99554.62
2023-04-02T14:17:41.646Z,99554.09
2023-04-02T14:21:12.617Z,99550.13
2023-04-02T14:24:22.587Z,99554.09
2023-04-02T14:27:29.604Z,99563.19
2023-04-02T14:31:04.587Z,99561.38
2023-04-02T14:34:32.605Z,99566.97
2023-04-02T14:37:51.581Z,99563.25
2023-04-02T14:41:13.626Z,99552.69
2023-04-02T14:44:20.627Z,99564.69
2023-04-02T14:47:58.620Z,99549.97
2023-04-02T14:50:58.587Z,99559.41
2023-04-02T14:54:09.609Z,99556.12
2023-04-02T14:57:13.617Z,99560.25
2023-04-02T15:00:19.628Z,99557.56
2023-04-02T15:03:33.704Z,99558.37
2023-04-02T15:06:37.605Z,99554.91
2023-04-02T15:09:56.599Z,99564.16
2023-04-02T15:12:57.637Z,99566.78
2023-04-02T15:16:02.674Z,99559.28
2023-04-02T15:19:13.621Z,99575.63
2023-04-02T15:22:40.620Z,99574.47
2023-04-02T15:26:01.660Z,99584.16
2023-04-02T15:29:07.558Z,99589.19
2023-04-02T15:32:16.651Z,99587.75
2023-04-02T15:35:51.596Z,99591.56
2023-04-02T15:38:58.590Z,99602.00
2023-04-02T15:42:22.637Z,99608.41
2023-04-02T15:45:25.648Z,99617.19
2023-04-02T15:48:37.607Z,99612.81
2023-04-02T15:51:43.639Z,99622.16
2023-04-02T15:54:58.607Z,99624.91
2023-04-02T15:58:22.653Z,99623.56
2023-04-02T16:01:44.612Z,99624.84
2023-04-02T16:05:19.629Z,99630.31
2023-04-02T16:08:47.605Z,99628.59
2023-04-02T16:11:47.650Z,99639.84
2023-04-02T16:14:58.596Z,99638.50
2023-04-02T16:17:59.686Z,99637.13
2023-04-02T16:21:04.630Z,99652.03
2023-04-02T16:24:04.629Z,99658.94
2023-04-02T16:27:29.648Z,99665.87
2023-04-02T16:30:29.604Z,99671.31
2023-04-02T16:33:32.612Z,99681.87
2023-04-02T16:37:03.623Z,99678.88
2023-04-02T16:40:14.631Z,99691.78
2023-04-02T16:43:24.625Z,99686.59
2023-04-02T16:46:43.737Z,99710.44
2023-04-02T16:50:03.603Z,99727.34
2023-04-02T16:53:33.606Z,99724.28
2023-04-02T16:56:51.668Z,99726.75
2023-04-02T17:00:03.660Z,99742.87
2023-04-02T17:03:03.670Z,99742.41
2023-04-02T17:06:26.637Z,99752.41
2023-04-02T17:09:29.628Z,99755.13
2023-04-02T17:12:40.634Z,99765.47
2023-04-02T17:15:47.609Z,99765.28
2023-04-02T17:18:47.595Z,99774.31
2023-04-02T17:21:48.637Z,99766.34
2023-04-02T17:25:17.605Z,99779.56
2023-04-02T17:28:17.641Z,99789.66
2023-04-02T17:31:30.808Z,99797.56
2023-04-02T17:34:32.591Z,99779.41
2023-04-02T17:37:47.662Z,99807.03
2023-04-02T17:41:02.620Z,99811.22
2023-04-02T17:44:18.635Z,99815.78
2023-04-02T17:47:53.624Z,99821.97
2023-04-02T17:51:36.625Z,99832.94
2023-04-02T17:54:50.636Z,99844.84
2023-04-02T17:58:07.660Z,99847.56
2023-04-02T18:01:14.659Z,99853.63
2023-04-02T18:04:43.629Z,99857.38
2023-04-02T18:08:19.627Z,99862.50
2023-04-02T18:12:04.654Z,99865.16
2023-04-02T18:16:01.643Z,99872.28
2023-04-02T18:19:22.615Z,99876.25
2023-04-02T18:22:28.653Z,99899.72
2023-04-02T18:25:56.643Z,99905.59
2023-04-02T18:29:03.612Z,99905.31
2023-04-02T18:32:13.608Z,99850.47
2023-04-02T18:35:28.710Z,99908.72
2023-04-02T18:38:45.632Z,99908.25
2023-04-02T18:41:59.636Z,99910.69
2023-04-02T18:45:17.641Z,99918.03
2023-04-02T18:48:24.666Z,99912.50
2023-04-02T18:51:30.602Z,99918.94
2023-04-02T18:54:52.653Z,99926.38
2023-04-02T18:57:53.604Z,99920.53
2023-04-02T19:00:55.627Z,99918.25
2023-04-02T19:04:26.662Z,99908.84
2023-04-02T19:07:29.611Z,99930.03
2023-04-02T19:10:47.615Z,99954.53
2023-04-02T19:13:47.636Z,99945.28
2023-04-02T19:17:02.599Z,99948.94
2023-04-02T19:20:08.666Z,99952.53
2023-04-02T19:23:23.648Z,99957.88
2023-04-02T19:26:29.614Z,99960.69
2023-04-02T19:29:45.676Z,99965.91
2023-04-02T19:33:04.728Z,99954.31
2023-04-02T19:36:11.680Z,99942.84
2023-04-02T19:39:13.591Z,99966.31
2023-04-02T19:42:27.638Z,99967.56
2023-04-02T19:45:54.674Z,99955.56
2023-04-02T19:49:29.588Z,99962.84
2023-04-02T19:52:29.625Z,99978.87
2023-04-02T19:55:29.625Z,99965.13
2023-04-02T19:58:42.635Z,99964.03
2023-04-02T20:01:42.639Z,99970.72
2023-04-02T20:04:42.639Z,99969.25
2023-04-02T20:07:44.643Z,99980.91
2023-04-02T20:10:44.608Z,99985.31
2023-04-02T20:13:44.605Z,99985.50
2023-04-02T20:16:46.047Z,99997.69
2023-04-02T20:19:45.622Z,99973.44
2023-04-02T20:22:45.568Z,99998.81
2023-04-02T20:25:45.678Z,99997.16
2023-04-02T20:28:45.593Z,100003.09
2023-04-02T20:31:45.628Z,99995.59
2023-04-02T20:34:46.653Z,99991.19
2023-04-02T20:37:48.600Z,99997.34
2023-04-02T20:40:48.629Z,100005.16
2023-04-02T20:43:49.635Z,99964.94
2023-04-02T20:46:49.647Z,100009.00
2023-04-02T20:49:49.627Z,100013.25
2023-04-02T20:52:49.657Z,99984.56
2023-04-02T20:55:49.623Z,100000.66
2023-04-02T20:58:50.627Z,100014.22
2023-04-02T21:01:50.633Z,99985.59
2023-04-02T21:04:50.694Z,100020.25
2023-04-02T21:07:50.629Z,100028.16
2023-04-02T21:10:50.664Z,100000.25
2023-04-02T21:13:50.655Z,100020.47
2023-04-02T21:16:50.618Z,100030.75
2023-04-02T21:19:50.615Z,100044.53
2023-04-02T21:22:50.639Z,100046.31
2023-04-02T21:25:50.636Z,100049.00
2023-04-02T21:28:50.647Z,100057.34
2023-04-02T21:31:44.740Z,100053.09
2023-04-02T21:34:44.781Z,100068.75
2023-04-02T21:37:45.365Z,100067.97
2023-04-02T21:40:45.605Z,100067.06
2023-04-02T21:43:45.633Z,100072.56
2023-04-02T21:46:53.082Z,100067.25
2023-04-02T21:49:54.622Z,100068.38
2023-04-02T21:52:54.624Z,100060.00
2023-04-02T21:55:54.629Z,100080.56
2023-04-02T21:58:54.639Z,100074.59
2023-04-02T22:02:02.653Z,100080.66
2023-04-02T22:05:02.644Z,100075.53
2023-04-02T22:08:02.595Z,100083.25
2023-04-02T22:11:02.616Z,100072.00
2023-04-02T22:14:03.670Z,100085.41
2023-04-02T22:17:04.795Z,100093.31
2023-04-02T22:20:04.584Z,100069.88
2023-04-02T22:23:04.608Z,100086.62
2023-04-02T22:26:05.633Z,100084.94
2023-04-02T22:29:05.659Z,100082.41
2023-04-02T22:32:05.649Z,100070.91
2023-04-02T22:35:05.587Z,100087.00
2023-04-02T22:38:05.603Z,100095.00
2023-04-02T22:41:05.594Z,100089.97
2023-04-02T22:44:05.618Z,100083.19
2023-04-02T22:47:05.594Z,100068.41
2023-04-02T22:50:05.668Z,100092.56
2023-04-02T22:53:05.583Z,100088.84
2023-04-02T22:56:05.653Z,100087.53
2023-04-02T22:59:05.622Z,100094.03
2023-04-02T23:02:05.726Z,100079.25
2023-04-02T23:05:05.683Z,100090.69
2023-04-02T23:08:05.614Z,100092.91
2023-04-02T23:11:05.649Z,100087.31
2023-04-02T23:14:06.587Z,100087.66
2023-04-02T23:17:06.641Z,100093.03
2023-04-02T23:20:06.612Z,100081.81
2023-04-02T23:23:06.598Z,100098.88
2023-04-02T23:26:20.590Z,100096.41
2023-04-02T23:29:20.646Z,100083.34
2023-04-02T23:32:20.589Z,100108.84
2023-04-02T23:35:20.645Z,100087.75
2023-04-02T23:38:20.599Z,100115.22
2023-04-02T23:41:20.672Z,100105.19
2023-04-02T23:44:20.598Z,100108.88
2023-04-02T23:47:20.660Z,100107.47
2023-04-02T23:50:20.600Z,100089.13
2023-04-02T23:53:20.635Z,100101.87
2023-04-02T23:56:20.595Z,100097.66
2023-04-02T23:59:20.598Z,100104.38
